sensor_id;sensor_type;location;lat;lon;timestamp;pressure;altitude;pressure_sealevel;temperature;humidity
19748;BME280;10032;51.386;12.516;2023-05-08T00:01:14;101020.69;;;8.34;100.00
19748;BME280;10032;51.386;12.516;2023-05-08T00:03:41;101011.75;;;8.33;100.00
19748;BME280;10032;51.386;12.516;2023-05-08T00:06:06;101000.78;;;8.28;100.00
19748;BME280;10032;51.386;12.516;2023-05-08T00:08:32;101004.31;;;8.29;100.00
19748;BME280;10032;51.386;12.516;2023-05-08T00:10:57;101004.31;;;8.29;100.00
19748;BME280;10032;51.386;12.516;2023-05-08T00:13:23;101007.00;;;8.29;100.00
19748;BME280;10032;51.386;12.516;2023-05-08T00:15:49;100999.97;;;8.21;100.00
19748;BME280;10032;51.386;12.516;2023-05-08T00:18:14;100996.03;;;8.24;100.00
19748;BME280;10032;51.386;12.516;2023-05-08T00:20:40;100998.69;;;8.17;100.00
19748;BME280;10032;51.386;12.516;2023-05-08T00:23:06;100998.94;;;8.22;100.00
19748;BME280;10032;51.386;12.516;2023-05-08T00:25:32;101009.72;;;8.22;100.00
19748;BME280;10032;51.386;12.516;2023-05-08T00:27:58;101006.81;;;8.17;100.00
19748;BME280;10032;51.386;12.516;2023-05-08T00:30:23;101002.25;;;8.11;100.00
19748;BME280;10032;51.386;12.516;2023-05-08T00:32:49;101008.06;;;8.08;100.00
19748;BME280;10032;51.386;12.516;2023-05-08T00:35:14;101010.34;;;8.11;100.00
19748;BME280;10032;51.386;12.516;2023-05-08T00:37:39;101016.34;;;8.13;100.00
19748;BME280;10032;51.386;12.516;2023-05-08T00:40:07;101006.22;;;8.09;100.00
19748;BME280;10032;51.386;12.516;2023-05-08T00:42:33;101004.31;;;8.09;100.00
19748;BME280;10032;51.386;12.516;2023-05-08T00:44:59;101003.13;;;7.99;100.00
19748;BME280;10032;51.386;12.516;2023-05-08T00:47:24;100996.47;;;8.01;100.00
19748;BME280;10032;51.386;12.516;2023-05-08T00:49:50;101009.78;;;7.90;100.00
19748;BME280;10032;51.386;12.516;2023-05-08T00:52:17;101006.88;;;7.85;100.00
19748;BME280;10032;51.386;12.516;2023-05-08T00:54:43;101009.78;;;7.83;100.00
19748;BME280;10032;51.386;12.516;2023-05-08T00:57:09;101015.63;;;7.80;100.00
19748;BME280;10032;51.386;12.516;2023-05-08T00:59:35;101011.06;;;7.74;100.00
19748;BME280;10032;51.386;12.516;2023-05-08T01:02:01;101005.69;;;7.74;100.00
19748;BME280;10032;51.386;12.516;2023-05-08T01:04:28;100998.19;;;7.76;100.00
19748;BME280;10032;51.386;12.516;2023-05-08T01:06:54;101001.31;;;7.73;100.00
19748;BME280;10032;51.386;12.516;2023-05-08T01:09:20;100999.88;;;7.64;100.00
19748;BME280;10032;51.386;12.516;2023-05-08T01:11:55;101002.78;;;7.56;100.00
19748;BME280;10032;51.386;12.516;2023-05-08T01:14:28;101003.81;;;7.55;100.00
19748;BME280;10032;51.386;12.516;2023-05-08T01:20:16;101012.31;;;7.65;100.00
19748;BME280;10032;51.386;12.516;2023-05-08T01:23:23;101015.22;;;7.64;100.00
19748;BME280;10032;51.386;12.516;2023-05-08T01:31:27;101013.16;;;7.59;100.00
19748;BME280;10032;51.386;12.516;2023-05-08T01:34:18;101006.50;;;7.55;100.00
19748;BME280;10032;51.386;12.516;2023-05-08T01:36:52;101023.13;;;7.52;100.00
19748;BME280;10032;51.386;12.516;2023-05-08T01:42:43;101022.72;;;7.42;100.00
19748;BME280;10032;51.386;12.516;2023-05-08T01:45:30;101030.78;;;7.36;100.00
19748;BME280;10032;51.386;12.516;2023-05-08T01:48:04;101022.06;;;7.40;100.00
19748;BME280;10032;51.386;12.516;2023-05-08T01:50:37;101018.56;;;7.33;100.00
19748;BME280;10032;51.386;12.516;2023-05-08T01:53:11;101022.28;;;7.26;100.00
19748;BME280;10032;51.386;12.516;2023-05-08T01:55:38;101030.38;;;7.26;100.00
19748;BME280;10032;51.386;12.516;2023-05-08T01:58:07;101031.63;;;7.23;100.00
19748;BME280;10032;51.386;12.516;2023-05-08T02:00:33;101027.69;;;7.26;100.00
19748;BME280;10032;51.386;12.516;2023-05-08T02:03:01;101031.00;;;7.21;100.00
19748;BME280;10032;51.386;12.516;2023-05-08T02:05:30;101033.47;;;7.23;100.00
19748;BME280;10032;51.386;12.516;2023-05-08T02:07:57;101029.75;;;7.17;100.00
19748;BME280;10032;51.386;12.516;2023-05-08T02:10:24;101028.69;;;7.12;100.00
19748;BME280;10032;51.386;12.516;2023-05-08T02:12:51;101023.53;;;7.10;100.00
19748;BME280;10032;51.386;12.516;2023-05-08T02:15:17;101021.03;;;7.09;100.00
19748;BME280;10032;51.386;12.516;2023-05-08T02:17:47;101028.06;;;7.10;100.00
19748;BME280;10032;51.386;12.516;2023-05-08T02:20:15;101023.53;;;7.10;100.00
19748;BME280;10032;51.386;12.516;2023-05-08T02:22:42;101026.84;;;7.12;100.00
19748;BME280;10032;51.386;12.516;2023-05-08T02:25:09;101027.03;;;7.04;100.00
19748;BME280;10032;51.386;12.516;2023-05-08T02:27:40;101022.69;;;6.97;100.00
19748;BME280;10032;51.386;12.516;2023-05-08T02:30:13;101031.78;;;6.89;100.00
19748;BME280;10032;51.386;12.516;2023-05-08T02:32:43;101029.09;;;6.89;100.00
19748;BME280;10032;51.386;12.516;2023-05-08T02:35:14;101029.09;;;6.89;100.00
19748;BME280;10032;51.386;12.516;2023-05-08T02:37:44;101024.28;;;6.85;100.00
19748;BME280;10032;51.386;12.516;2023-05-08T02:40:10;101035.50;;;6.82;100.00
19748;BME280;10032;51.386;12.516;2023-05-08T02:42:37;101033.00;;;6.80;100.00
19748;BME280;10032;51.386;12.516;2023-05-08T02:45:03;101041.47;;;6.77;100.00
19748;BME280;10032;51.386;12.516;2023-05-08T02:47:36;101032.59;;;6.77;100.00
19748;BME280;10032;51.386;12.516;2023-05-08T02:50:10;101041.91;;;6.74;100.00
19748;BME280;10032;51.386;12.516;2023-05-08T02:53:01;101039.56;;;6.65;100.00
19748;BME280;10032;51.386;12.516;2023-05-08T02:55:48;101033.38;;;6.64;100.00
19748;BME280;10032;51.386;12.516;2023-05-08T02:58:23;101028.38;;;6.61;100.00
19748;BME280;10032;51.386;12.516;2023-05-08T03:03:34;101039.91;;;6.49;100.00
19748;BME280;10032;51.386;12.516;2023-05-08T03:06:02;101039.06;;;6.42;100.00
19748;BME280;10032;51.386;12.516;2023-05-08T03:08:34;101035.34;;;6.43;100.00
19748;BME280;10032;51.386;12.516;2023-05-08T03:11:07;101034.94;;;6.39;100.00
19748;BME280;10032;51.386;12.516;2023-05-08T03:13:35;101030.19;;;6.41;100.00
19748;BME280;10032;51.386;12.516;2023-05-08T03:16:03;101035.78;;;6.40;100.00
19748;BME280;10032;51.386;12.516;2023-05-08T03:18:54;101029.72;;;6.31;100.00
19748;BME280;10032;51.386;12.516;2023-05-08T03:21:21;101029.94;;;6.30;100.00
19748;BME280;10032;51.386;12.516;2023-05-08T03:23:51;101032.41;;;6.31;100.00
19748;BME280;10032;51.386;12.516;2023-05-08T03:26:18;101036.53;;;6.27;100.00
19748;BME280;10032;51.386;12.516;2023-05-08T03:28:49;101044.41;;;6.29;100.00
19748;BME280;10032;51.386;12.516;2023-05-08T03:31:19;101053.72;;;6.26;100.00
19748;BME280;10032;51.386;12.516;2023-05-08T03:33:47;101048.34;;;6.26;100.00
19748;BME280;10032;51.386;12.516;2023-05-08T03:36:13;101051.84;;;6.27;100.00
19748;BME280;10032;51.386;12.516;2023-05-08T03:38:40;101052.69;;;6.27;100.00
19748;BME280;10032;51.386;12.516;2023-05-08T03:41:06;101043.56;;;6.28;100.00
19748;BME280;10032;51.386;12.516;2023-05-08T03:43:31;101046.47;;;6.27;100.00
19748;BME280;10032;51.386;12.516;2023-05-08T03:45:57;101044.81;;;6.26;100.00
19748;BME280;10032;51.386;12.516;2023-05-08T03:48:24;101041.31;;;6.25;100.00
19748;BME280;10032;51.386;12.516;2023-05-08T03:50:50;101040.03;;;6.21;100.00
19748;BME280;10032;51.386;12.516;2023-05-08T03:53:17;101041.50;;;6.24;100.00
19748;BME280;10032;51.386;12.516;2023-05-08T03:55:42;101033.22;;;6.25;100.00
19748;BME280;10032;51.386;12.516;2023-05-08T04:03:46;101036.78;;;6.32;100.00
19748;BME280;10032;51.386;12.516;2023-05-08T04:09:12;101042.81;;;6.41;100.00
19748;BME280;10032;51.386;12.516;2023-05-08T04:14:25;101053.59;;;6.54;100.00
19748;BME280;10032;51.386;12.516;2023-05-08T04:16:54;101044.53;;;6.61;100.00
19748;BME280;10032;51.386;12.516;2023-05-08T04:19:23;101046.84;;;6.64;100.00
19748;BME280;10032;51.386;12.516;2023-05-08T04:21:53;101051.00;;;6.73;100.00
19748;BME280;10032;51.386;12.516;2023-05-08T04:24:22;101057.03;;;6.82;100.00
19748;BME280;10032;51.386;12.516;2023-05-08T04:26:49;101047.53;;;6.92;100.00
19748;BME280;10032;51.386;12.516;2023-05-08T04:29:15;101060.59;;;7.02;100.00
19748;BME280;10032;51.386;12.516;2023-05-08T04:31:42;101060.25;;;7.37;100.00
19748;BME280;10032;51.386;12.516;2023-05-08T04:34:08;101061.69;;;7.59;100.00
19748;BME280;10032;51.386;12.516;2023-05-08T04:36:34;101064.56;;;7.84;100.00
19748;BME280;10032;51.386;12.516;2023-05-08T04:38:59;101065.19;;;8.05;100.00
19748;BME280;10032;51.386;12.516;2023-05-08T04:41:25;101070.28;;;8.39;100.00
19748;BME280;10032;51.386;12.516;2023-05-08T04:43:50;101065.06;;;8.51;100.00
19748;BME280;10032;51.386;12.516;2023-05-08T04:46:17;101067.00;;;8.37;100.00
19748;BME280;10032;51.386;12.516;2023-05-08T04:48:42;101066.34;;;8.35;100.00
19748;BME280;10032;51.386;12.516;2023-05-08T04:51:07;101070.13;;;8.28;100.00
19748;BME280;10032;51.386;12.516;2023-05-08T04:53:33;101070.72;;;8.36;100.00
19748;BME280;10032;51.386;12.516;2023-05-08T04:55:58;101077.53;;;8.45;100.00
19748;BME280;10032;51.386;12.516;2023-05-08T04:58:24;101081.41;;;8.62;100.00
19748;BME280;10032;51.386;12.516;2023-05-08T05:00:49;101083.22;;;8.81;100.00
19748;BME280;10032;51.386;12.516;2023-05-08T05:03:14;101086.31;;;8.85;100.00
19748;BME280;10032;51.386;12.516;2023-05-08T05:05:40;101081.88;;;8.97;100.00
19748;BME280;10032;51.386;12.516;2023-05-08T05:08:05;101089.38;;;9.32;100.00
19748;BME280;10032;51.386;12.516;2023-05-08T05:10:31;101082.50;;;9.61;100.00
19748;BME280;10032;51.386;12.516;2023-05-08T05:12:56;101082.75;;;9.77;100.00
19748;BME280;10032;51.386;12.516;2023-05-08T05:15:21;101074.03;;;9.75;100.00
19748;BME280;10032;51.386;12.516;2023-05-08T05:17:47;101084.19;;;9.80;100.00
19748;BME280;10032;51.386;12.516;2023-05-08T05:20:12;101085.19;;;10.10;100.00
19748;BME280;10032;51.386;12.516;2023-05-08T05:22:39;101091.47;;;10.28;100.00
19748;BME280;10032;51.386;12.516;2023-05-08T05:25:04;101092.66;;;10.68;100.00
19748;BME280;10032;51.386;12.516;2023-05-08T05:27:30;101087.19;;;11.04;100.00
19748;BME280;10032;51.386;12.516;2023-05-08T05:29:56;101091.81;;;11.15;100.00
19748;BME280;10032;51.386;12.516;2023-05-08T05:32:21;101088.31;;;11.56;100.00
19748;BME280;10032;51.386;12.516;2023-05-08T05:34:47;101086.41;;;11.56;100.00
19748;BME280;10032;51.386;12.516;2023-05-08T05:37:12;101092.22;;;11.60;100.00
19748;BME280;10032;51.386;12.516;2023-05-08T05:39:37;101085.41;;;11.69;100.00
19748;BME280;10032;51.386;12.516;2023-05-08T05:42:04;101085.97;;;11.71;100.00
19748;BME280;10032;51.386;12.516;2023-05-08T05:44:30;101088.59;;;11.77;100.00
19748;BME280;10032;51.386;12.516;2023-05-08T05:46:55;101091.56;;;11.46;100.00
19748;BME280;10032;51.386;12.516;2023-05-08T05:49:21;101086.44;;;11.27;100.00
19748;BME280;10032;51.386;12.516;2023-05-08T05:51:46;101082.91;;;11.26;100.00
19748;BME280;10032;51.386;12.516;2023-05-08T05:54:11;101091.16;;;11.20;100.00
19748;BME280;10032;51.386;12.516;2023-05-08T05:56:38;101095.59;;;11.14;100.00
19748;BME280;10032;51.386;12.516;2023-05-08T05:59:04;101085.16;;;11.29;100.00
19748;BME280;10032;51.386;12.516;2023-05-08T06:01:29;101093.09;;;11.42;100.00
19748;BME280;10032;51.386;12.516;2023-05-08T06:03:54;101095.78;;;11.60;100.00
19748;BME280;10032;51.386;12.516;2023-05-08T06:06:20;101100.75;;;11.75;100.00
19748;BME280;10032;51.386;12.516;2023-05-08T06:08:46;101084.97;;;11.95;100.00
19748;BME280;10032;51.386;12.516;2023-05-08T06:11:12;101091.56;;;12.33;100.00
19748;BME280;10032;51.386;12.516;2023-05-08T06:13:39;101091.19;;;12.41;100.00
19748;BME280;10032;51.386;12.516;2023-05-08T06:16:05;101092.94;;;12.70;100.00
19748;BME280;10032;51.386;12.516;2023-05-08T06:18:32;101090.84;;;13.00;100.00
19748;BME280;10032;51.386;12.516;2023-05-08T06:20:57;101093.38;;;13.18;100.00
19748;BME280;10032;51.386;12.516;2023-05-08T06:23:23;101089.69;;;13.24;100.00
19748;BME280;10032;51.386;12.516;2023-05-08T06:25:48;101087.25;;;13.39;100.00
19748;BME280;10032;51.386;12.516;2023-05-08T06:28:14;101092.31;;;13.19;100.00
19748;BME280;10032;51.386;12.516;2023-05-08T06:30:39;101092.59;;;13.34;100.00
19748;BME280;10032;51.386;12.516;2023-05-08T06:33:04;101089.41;;;13.54;100.00
19748;BME280;10032;51.386;12.516;2023-05-08T06:35:30;101100.06;;;13.88;100.00
19748;BME280;10032;51.386;12.516;2023-05-08T06:37:55;101098.50;;;13.76;100.00
19748;BME280;10032;51.386;12.516;2023-05-08T06:40:21;101097.69;;;13.75;100.00
19748;BME280;10032;51.386;12.516;2023-05-08T06:42:47;101093.47;;;13.68;100.00
19748;BME280;10032;51.386;12.516;2023-05-08T06:45:13;101098.22;;;13.61;100.00
19748;BME280;10032;51.386;12.516;2023-05-08T06:47:39;101097.09;;;13.90;100.00
19748;BME280;10032;51.386;12.516;2023-05-08T06:50:05;101089.25;;;14.26;100.00
19748;BME280;10032;51.386;12.516;2023-05-08T06:52:31;101085.75;;;14.69;100.00
19748;BME280;10032;51.386;12.516;2023-05-08T06:54:56;101086.94;;;14.99;100.00
19748;BME280;10032;51.386;12.516;2023-05-08T06:57:22;101081.47;;;14.99;100.00
19748;BME280;10032;51.386;12.516;2023-05-08T06:59:48;101081.84;;;15.08;100.00
19748;BME280;10032;51.386;12.516;2023-05-08T07:02:13;101087.91;;;14.88;99.28
19748;BME280;10032;51.386;12.516;2023-05-08T07:04:40;101085.47;;;14.92;98.28
19748;BME280;10032;51.386;12.516;2023-05-08T07:07:05;101081.78;;;15.03;99.07
19748;BME280;10032;51.386;12.516;2023-05-08T07:09:31;101086.44;;;15.29;100.00
19748;BME280;10032;51.386;12.516;2023-05-08T07:11:57;101089.63;;;15.42;94.10
19748;BME280;10032;51.386;12.516;2023-05-08T07:14:22;101088.81;;;15.20;92.58
19748;BME280;10032;51.386;12.516;2023-05-08T07:16:48;101085.28;;;14.98;91.36
19748;BME280;10032;51.386;12.516;2023-05-08T07:19:13;101088.03;;;15.46;96.01
19748;BME280;10032;51.386;12.516;2023-05-08T07:21:39;101086.03;;;15.68;94.31
19748;BME280;10032;51.386;12.516;2023-05-08T07:24:04;101095.88;;;15.38;89.67
19748;BME280;10032;51.386;12.516;2023-05-08T07:26:30;101088.31;;;15.23;91.24
19748;BME280;10032;51.386;12.516;2023-05-08T07:28:55;101093.75;;;15.45;92.44
19748;BME280;10032;51.386;12.516;2023-05-08T07:31:21;101099.44;;;15.43;91.04
19748;BME280;10032;51.386;12.516;2023-05-08T07:33:46;101095.44;;;15.51;92.31
19748;BME280;10032;51.386;12.516;2023-05-08T07:36:12;101085.53;;;15.71;93.49
19748;BME280;10032;51.386;12.516;2023-05-08T07:38:37;101099.56;;;15.53;87.92
19748;BME280;10032;51.386;12.516;2023-05-08T07:41:03;101096.34;;;15.08;87.61
19748;BME280;10032;51.386;12.516;2023-05-08T07:43:30;101093.34;;;15.10;89.94
19748;BME280;10032;51.386;12.516;2023-05-08T07:45:57;101084.63;;;15.34;91.51
19748;BME280;10032;51.386;12.516;2023-05-08T07:48:25;101091.50;;;15.68;90.41
19748;BME280;10032;51.386;12.516;2023-05-08T07:50:50;101085.44;;;15.61;88.02
19748;BME280;10032;51.386;12.516;2023-05-08T07:53:16;101088.16;;;15.61;88.84
19748;BME280;10032;51.386;12.516;2023-05-08T07:55:42;101092.19;;;15.85;89.77
19748;BME280;10032;51.386;12.516;2023-05-08T07:58:07;101084.75;;;15.76;87.55
19748;BME280;10032;51.386;12.516;2023-05-08T08:00:33;101089.34;;;15.70;88.74
19748;BME280;10032;51.386;12.516;2023-05-08T08:02:59;101079.63;;;15.84;89.42
19748;BME280;10032;51.386;12.516;2023-05-08T08:05:24;101087.00;;;15.84;88.69
19748;BME280;10032;51.386;12.516;2023-05-08T08:07:50;101087.84;;;15.89;89.30
19748;BME280;10032;51.386;12.516;2023-05-08T08:10:15;101092.22;;;15.90;88.11
19748;BME280;10032;51.386;12.516;2023-05-08T08:12:41;101092.50;;;15.89;88.07
19748;BME280;10032;51.386;12.516;2023-05-08T08:15:06;101092.81;;;15.92;86.93
19748;BME280;10032;51.386;12.516;2023-05-08T08:17:32;101095.50;;;15.87;86.15
19748;BME280;10032;51.386;12.516;2023-05-08T08:19:57;101091.31;;;16.11;86.84
19748;BME280;10032;51.386;12.516;2023-05-08T08:22:24;101097.06;;;16.15;86.29
19748;BME280;10032;51.386;12.516;2023-05-08T08:24:49;101093.63;;;15.93;85.26
19748;BME280;10032;51.386;12.516;2023-05-08T08:27:15;101085.03;;;16.11;86.40
19748;BME280;10032;51.386;12.516;2023-05-08T08:29:40;101082.09;;;16.27;86.54
19748;BME280;10032;51.386;12.516;2023-05-08T08:32:06;101089.53;;;16.32;84.78
19748;BME280;10032;51.386;12.516;2023-05-08T08:34:34;101091.91;;;16.18;84.60
19748;BME280;10032;51.386;12.516;2023-05-08T08:37:00;101096.19;;;16.04;85.06
19748;BME280;10032;51.386;12.516;2023-05-08T08:39:26;101089.25;;;16.28;84.42
19748;BME280;10032;51.386;12.516;2023-05-08T08:41:51;101083.94;;;16.53;85.03
19748;BME280;10032;51.386;12.516;2023-05-08T08:44:16;101084.50;;;16.50;83.22
19748;BME280;10032;51.386;12.516;2023-05-08T08:46:52;101091.16;;;16.28;81.39
19748;BME280;10032;51.386;12.516;2023-05-08T08:49:31;101086.09;;;16.46;83.47
19748;BME280;10032;51.386;12.516;2023-05-08T08:52:02;101095.31;;;16.35;80.66
19748;BME280;10032;51.386;12.516;2023-05-08T08:54:33;101089.66;;;16.47;83.36
19748;BME280;10032;51.386;12.516;2023-05-08T08:57:00;101085.84;;;16.48;82.97
19748;BME280;10032;51.386;12.516;2023-05-08T08:59:30;101083.38;;;17.13;84.12
19748;BME280;10032;51.386;12.516;2023-05-08T09:02:00;101097.97;;;17.38;80.97
19748;BME280;10032;51.386;12.516;2023-05-08T09:04:30;101101.75;;;17.27;78.51
19748;BME280;10032;51.386;12.516;2023-05-08T09:06:57;101094.63;;;17.21;80.25
19748;BME280;10032;51.386;12.516;2023-05-08T09:09:23;101100.41;;;17.35;78.73
19748;BME280;10032;51.386;12.516;2023-05-08T09:11:51;101099.88;;;17.38;78.74
19748;BME280;10032;51.386;12.516;2023-05-08T09:14:16;101096.84;;;17.29;76.61
19748;BME280;10032;51.386;12.516;2023-05-08T09:16:42;101091.88;;;17.21;73.80
19748;BME280;10032;51.386;12.516;2023-05-08T09:19:08;101100.75;;;17.53;76.34
19748;BME280;10032;51.386;12.516;2023-05-08T09:21:33;101088.16;;;17.67;75.08
19748;BME280;10032;51.386;12.516;2023-05-08T09:24:00;101088.13;;;17.42;70.96
19748;BME280;10032;51.386;12.516;2023-05-08T09:29:13;101085.41;;;17.67;70.67
19748;BME280;10032;51.386;12.516;2023-05-08T09:31:42;101080.22;;;17.66;67.18
19748;BME280;10032;51.386;12.516;2023-05-08T09:34:09;101078.28;;;17.86;69.99
19748;BME280;10032;51.386;12.516;2023-05-08T09:36:36;101084.88;;;17.85;66.10
19748;BME280;10032;51.386;12.516;2023-05-08T09:39:02;101087.59;;;18.05;70.32
19748;BME280;10032;51.386;12.516;2023-05-08T09:41:27;101089.75;;;18.53;70.19
19748;BME280;10032;51.386;12.516;2023-05-08T09:44:04;101099.88;;;18.63;68.23
19748;BME280;10032;51.386;12.516;2023-05-08T09:46:30;101085.81;;;18.74;64.95
19748;BME280;10032;51.386;12.516;2023-05-08T09:48:59;101085.53;;;18.81;66.22
19748;BME280;10032;51.386;12.516;2023-05-08T09:51:27;101085.72;;;18.99;64.07
19748;BME280;10032;51.386;12.516;2023-05-08T09:53:54;101087.97;;;18.92;61.95
19748;BME280;10032;51.386;12.516;2023-05-08T09:56:30;101083.41;;;19.26;66.16
19748;BME280;10032;51.386;12.516;2023-05-08T09:58:55;101080.44;;;19.61;65.07
19748;BME280;10032;51.386;12.516;2023-05-08T10:03:55;101074.50;;;20.16;64.02
19748;BME280;10032;51.386;12.516;2023-05-08T10:06:21;101075.75;;;20.52;64.15
19748;BME280;10032;51.386;12.516;2023-05-08T10:08:46;101084.75;;;20.34;59.47
19748;BME280;10032;51.386;12.516;2023-05-08T10:11:18;101080.03;;;20.11;57.04
19748;BME280;10032;51.386;12.516;2023-05-08T10:13:44;101072.66;;;20.35;57.17
19748;BME280;10032;51.386;12.516;2023-05-08T10:16:15;101066.66;;;20.52;57.24
19748;BME280;10032;51.386;12.516;2023-05-08T10:18:48;101075.88;;;20.42;54.36
19748;BME280;10032;51.386;12.516;2023-05-08T10:21:14;101071.78;;;20.11;51.45
19748;BME280;10032;51.386;12.516;2023-05-08T10:23:41;101071.13;;;20.24;54.46
19748;BME280;10032;51.386;12.516;2023-05-08T10:26:18;101070.75;;;20.31;54.70
19748;BME280;10032;51.386;12.516;2023-05-08T10:28:54;101066.44;;;20.72;55.95
19748;BME280;10032;51.386;12.516;2023-05-08T10:31:24;101073.97;;;21.08;53.23
19748;BME280;10032;51.386;12.516;2023-05-08T10:33:54;101065.66;;;21.32;53.83
19748;BME280;10032;51.386;12.516;2023-05-08T10:36:24;101067.91;;;21.30;52.22
19748;BME280;10032;51.386;12.516;2023-05-08T10:38:50;101074.47;;;21.52;52.03
19748;BME280;10032;51.386;12.516;2023-05-08T10:41:18;101064.84;;;21.31;51.49
19748;BME280;10032;51.386;12.516;2023-05-08T10:43:43;101067.47;;;21.41;51.40
19748;BME280;10032;51.386;12.516;2023-05-08T10:46:21;101065.66;;;21.50;49.68
19748;BME280;10032;51.386;12.516;2023-05-08T10:48:59;101071.63;;;21.39;47.84
19748;BME280;10032;51.386;12.516;2023-05-08T10:51:42;101056.78;;;21.16;48.42
19748;BME280;10032;51.386;12.516;2023-05-08T10:54:17;101059.16;;;21.04;46.41
19748;BME280;10032;51.386;12.516;2023-05-08T10:56:43;101053.84;;;20.66;46.56
19748;BME280;10032;51.386;12.516;2023-05-08T10:59:17;101060.28;;;21.03;48.03
19748;BME280;10032;51.386;12.516;2023-05-08T11:01:47;101062.00;;;21.55;47.86
19748;BME280;10032;51.386;12.516;2023-05-08T11:04:20;101058.19;;;21.88;47.76
19748;BME280;10032;51.386;12.516;2023-05-08T11:06:47;101055.44;;;22.01;45.43
19748;BME280;10032;51.386;12.516;2023-05-08T11:12:06;101046.97;;;21.98;44.78
19748;BME280;10032;51.386;12.516;2023-05-08T11:14:34;101036.19;;;21.64;43.39
19748;BME280;10032;51.386;12.516;2023-05-08T11:19:27;101044.66;;;21.86;42.78
19748;BME280;10032;51.386;12.516;2023-05-08T11:22:12;101034.38;;;21.41;44.40
19748;BME280;10032;51.386;12.516;2023-05-08T11:24:39;101041.31;;;21.89;45.82
19748;BME280;10032;51.386;12.516;2023-05-08T11:27:05;101045.19;;;22.20;45.99
19748;BME280;10032;51.386;12.516;2023-05-08T11:29:30;101041.78;;;22.10;46.05
19748;BME280;10032;51.386;12.516;2023-05-08T11:31:56;101043.63;;;22.14;45.25
19748;BME280;10032;51.386;12.516;2023-05-08T11:34:44;101040.91;;;22.28;46.38
19748;BME280;10032;51.386;12.516;2023-05-08T11:37:11;101035.13;;;22.56;45.57
19748;BME280;10032;51.386;12.516;2023-05-08T11:39:40;101033.41;;;22.42;46.32
19748;BME280;10032;51.386;12.516;2023-05-08T11:45:06;101024.00;;;22.29;44.74
19748;BME280;10032;51.386;12.516;2023-05-08T11:47:40;101023.59;;;22.36;45.54
19748;BME280;10032;51.386;12.516;2023-05-08T11:50:11;101009.91;;;22.44;45.09
19748;BME280;10032;51.386;12.516;2023-05-08T11:52:39;101010.91;;;22.21;44.21
19748;BME280;10032;51.386;12.516;2023-05-08T11:57:32;101007.84;;;22.36;44.62
19748;BME280;10032;51.386;12.516;2023-05-08T12:00:02;101017.03;;;22.18;43.68
19748;BME280;10032;51.386;12.516;2023-05-08T12:02:40;101012.56;;;22.36;43.96
19748;BME280;10032;51.386;12.516;2023-05-08T12:05:08;101022.66;;;22.40;43.42
19748;BME280;10032;51.386;12.516;2023-05-08T12:08:00;101009.91;;;22.58;43.81
19748;BME280;10032;51.386;12.516;2023-05-08T12:10:28;101013.09;;;22.78;43.83
19748;BME280;10032;51.386;12.516;2023-05-08T12:12:53;101005.78;;;22.82;43.18
19748;BME280;10032;51.386;12.516;2023-05-08T12:15:19;101008.81;;;22.72;42.73
19748;BME280;10032;51.386;12.516;2023-05-08T12:17:44;101009.91;;;22.71;43.34
19748;BME280;10032;51.386;12.516;2023-05-08T12:20:13;101012.09;;;22.47;41.94
19748;BME280;10032;51.386;12.516;2023-05-08T12:22:40;101006.25;;;22.76;43.23
19748;BME280;10032;51.386;12.516;2023-05-08T12:25:06;101005.16;;;22.99;42.82
19748;BME280;10032;51.386;12.516;2023-05-08T12:27:34;100993.53;;;22.88;42.34
19748;BME280;10032;51.386;12.516;2023-05-08T12:30:04;100998.81;;;22.98;42.80
19748;BME280;10032;51.386;12.516;2023-05-08T12:32:31;100991.03;;;23.00;42.59
19748;BME280;10032;51.386;12.516;2023-05-08T12:34:59;101000.47;;;22.99;41.46
19748;BME280;10032;51.386;12.516;2023-05-08T12:37:28;101001.94;;;22.83;41.18
19748;BME280;10032;51.386;12.516;2023-05-08T12:39:53;100994.44;;;22.84;40.21
19748;BME280;10032;51.386;12.516;2023-05-08T12:42:18;100993.53;;;22.48;41.36
19748;BME280;10032;51.386;12.516;2023-05-08T12:44:52;100992.56;;;22.44;40.46
19748;BME280;10032;51.386;12.516;2023-05-08T12:47:18;100984.91;;;22.90;41.03
19748;BME280;10032;51.386;12.516;2023-05-08T12:49:46;100988.97;;;23.41;40.88
19748;BME280;10032;51.386;12.516;2023-05-08T12:52:14;100990.63;;;23.42;40.31
19748;BME280;10032;51.386;12.516;2023-05-08T12:54:46;100978.44;;;23.74;40.41
19748;BME280;10032;51.386;12.516;2023-05-08T12:57:16;100981.91;;;24.01;40.15
19748;BME280;10032;51.386;12.516;2023-05-08T12:59:43;100971.03;;;24.13;38.93
19748;BME280;10032;51.386;12.516;2023-05-08T13:02:17;100980.28;;;24.00;37.99
19748;BME280;10032;51.386;12.516;2023-05-08T13:04:43;100969.63;;;24.24;39.09
19748;BME280;10032;51.386;12.516;2023-05-08T13:07:09;100969.31;;;24.26;38.38
19748;BME280;10032;51.386;12.516;2023-05-08T13:09:34;100969.84;;;24.06;36.64
19748;BME280;10032;51.386;12.516;2023-05-08T13:12:00;100967.47;;;23.38;36.33
19748;BME280;10032;51.386;12.516;2023-05-08T13:14:26;100978.13;;;22.96;36.30
19748;BME280;10032;51.386;12.516;2023-05-08T13:16:51;100966.38;;;22.90;37.98
19748;BME280;10032;51.386;12.516;2023-05-08T13:19:17;100976.38;;;23.35;37.94
19748;BME280;10032;51.386;12.516;2023-05-08T13:21:43;100954.00;;;23.45;36.73
19748;BME280;10032;51.386;12.516;2023-05-08T13:24:12;100958.00;;;23.61;35.95